Sao Paulo, Brazil
Current Conditions -  °F | °C
As of 8:00 PM on Friday 31 Oct 2014 (Local Time) from SBMT Reporting Station
Broken Clouds Broken Clouds  
Wind Chill: 24°   Ceiling: 4000
Heat Index: 24°   Visibility: 5mi
Dew Point: 17°   Wind: 12mph
Humidity: 65%   Direction: 110°ESE
Pressure: 30"   Gusts: NA
Location:  23.53°S, 46.63°W
Report Text: SBMT 312200Z 11010KT 8000 BKN040 24/17 Q1016
Loading
Personal Weather Stations






























Interactive Weather Map
Tropical Storm Tracking
New forecast layout! Learn more

10-Day Weather Forecast

Advertisements
Track Severe Weather on mobile